createdAt,value
2023-03-19T00:03:29.767Z,11.4
2023-03-19T00:14:36.813Z,11.6
2023-03-19T00:19:33.353Z,11.3
2023-03-19T00:24:29.951Z,10.9
2023-03-19T00:29:26.514Z,11.4
2023-03-19T00:35:37.110Z,11.6
2023-03-19T00:40:33.619Z,11.5
2023-03-19T00:45:30.185Z,11.8
2023-03-19T00:50:26.691Z,11.8
2023-03-19T00:56:37.359Z,11.7
2023-03-19T01:01:34.049Z,11.6
2023-03-19T01:06:30.397Z,11.6
2023-03-19T01:11:26.951Z,11.6
2023-03-19T01:17:37.636Z,11.6
2023-03-19T01:22:35.883Z,11.6
2023-03-19T01:27:30.647Z,11.6
2023-03-19T01:32:27.223Z,11.6
2023-03-19T01:38:37.893Z,11.6
2023-03-19T01:43:34.412Z,11.5
2023-03-19T01:48:30.977Z,11.5
2023-03-19T01:53:27.464Z,11.5
2023-03-19T01:58:25.916Z,11.3
2023-03-19T02:04:34.835Z,11.2
2023-03-19T02:09:31.193Z,11
2023-03-19T02:14:27.744Z,11.1
2023-03-19T02:20:38.470Z,10.8
2023-03-19T02:25:35.029Z,10.8
2023-03-19T02:30:31.661Z,10.8
2023-03-19T02:35:28.015Z,10.9
2023-03-19T02:40:24.591Z,10.9
2023-03-19T02:46:35.332Z,10.8
2023-03-19T02:51:31.759Z,10.7
2023-03-19T02:56:28.381Z,11
2023-03-19T03:01:24.812Z,10.9
2023-03-19T03:07:35.516Z,11
2023-03-19T03:12:32.057Z,10.9
2023-03-19T03:17:28.631Z,10.8
2023-03-19T03:22:25.163Z,10.8
2023-03-19T03:28:35.790Z,10.9
2023-03-19T03:33:32.284Z,10.8
2023-03-19T03:38:28.835Z,10.8
2023-03-19T03:43:25.375Z,10.8
2023-03-19T03:49:36.064Z,10.8
2023-03-19T03:54:32.579Z,10.8
2023-03-19T03:59:29.219Z,10.8
2023-03-19T04:04:25.727Z,10.8
2023-03-19T04:10:36.341Z,10.6
2023-03-19T04:15:32.850Z,10.6
2023-03-19T04:20:29.381Z,10.6
2023-03-19T04:25:25.936Z,10.6
2023-03-19T04:31:36.586Z,10.7
2023-03-19T04:36:33.097Z,10.6
2023-03-19T04:41:29.664Z,10.7
2023-03-19T04:52:36.846Z,10.5
2023-03-19T04:57:33.370Z,10.4
2023-03-19T05:02:30.002Z,10.3
2023-03-19T05:07:26.489Z,10.4
2023-03-19T05:13:37.200Z,10.4
2023-03-19T05:18:33.647Z,10.4
2023-03-19T05:23:30.157Z,10.4
2023-03-19T05:28:26.694Z,10.2
2023-03-19T05:34:37.381Z,10.1
2023-03-19T05:39:33.910Z,10.3
2023-03-19T05:44:30.412Z,10.3
2023-03-19T05:49:26.986Z,10.2
2023-03-19T05:55:37.625Z,10.4
2023-03-19T06:00:34.399Z,10.4
2023-03-19T06:05:30.678Z,10.5
2023-03-19T06:10:27.218Z,10.6
2023-03-19T06:16:37.898Z,10.6
2023-03-19T06:21:34.485Z,10.9
2023-03-19T06:26:30.967Z,11
2023-03-19T06:31:27.650Z,11.1
2023-03-19T06:37:38.168Z,11.2
2023-03-19T06:42:34.872Z,11.2
2023-03-19T06:47:31.237Z,11.2
2023-03-19T06:52:27.818Z,11.4
2023-03-19T06:58:38.456Z,11.4
2023-03-19T07:03:35.074Z,11.5
2023-03-19T07:08:31.479Z,11.7
2023-03-19T07:13:28.057Z,11.9
2023-03-19T07:18:24.653Z,12.2
2023-03-19T07:24:35.250Z,12.3
2023-03-19T07:29:31.817Z,12.3
2023-03-19T07:34:28.320Z,12.3
2023-03-19T07:39:24.871Z,12.4
2023-03-19T07:45:35.679Z,12.6
2023-03-19T07:50:32.284Z,12.9
2023-03-19T07:51:46.171Z,12.9
2023-03-19T07:55:28.660Z,12.6
2023-03-19T08:00:25.115Z,12.7
2023-03-19T08:06:35.822Z,12.9
2023-03-19T08:11:32.289Z,12.8
2023-03-19T08:16:28.936Z,13
2023-03-19T08:21:25.416Z,13
2023-03-19T08:27:36.136Z,13.2
2023-03-19T08:32:32.622Z,13.3
2023-03-19T08:37:29.158Z,13.3
2023-03-19T08:42:25.669Z,13.5
2023-03-19T08:48:36.604Z,13.3
2023-03-19T08:53:32.856Z,12.7
2023-03-19T08:58:29.467Z,12.4
2023-03-19T09:03:25.913Z,12.3
2023-03-19T09:09:36.581Z,12.2
2023-03-19T09:14:33.113Z,12.2
2023-03-19T09:19:29.809Z,12.1
2023-03-19T09:29:22.807Z,11.9
2023-03-19T09:35:33.694Z,12
2023-03-19T09:40:29.893Z,12.3
2023-03-19T09:45:26.425Z,12.2
2023-03-19T09:51:37.087Z,12
2023-03-19T09:56:33.606Z,12.3
2023-03-19T10:01:30.163Z,12.6
2023-03-19T10:06:26.695Z,12.9
2023-03-19T10:12:37.367Z,13.1
2023-03-19T10:17:33.912Z,13.1
2023-03-19T10:22:30.432Z,13.4
2023-03-19T10:27:26.964Z,13.8
2023-03-19T10:33:37.633Z,13.7
2023-03-19T10:38:34.172Z,13.9
2023-03-19T10:43:30.691Z,13.8
2023-03-19T10:48:28.338Z,13.7
2023-03-19T10:54:37.904Z,14.1
2023-03-19T10:59:34.440Z,14.5
2023-03-19T11:04:30.965Z,14.8
2023-03-19T11:09:27.497Z,15.6
2023-03-19T11:15:38.143Z,15.6
2023-03-19T11:20:34.691Z,15.3
2023-03-19T11:25:31.189Z,14.9
2023-03-19T11:30:27.782Z,14.6
2023-03-19T11:36:38.516Z,14.2
2023-03-19T11:41:34.954Z,14.2
2023-03-19T11:46:31.526Z,14.2
2023-03-19T11:51:28.267Z,15.1
2023-03-19T11:56:24.558Z,15.2
2023-03-19T12:02:35.410Z,15.2
2023-03-19T12:07:31.781Z,15.7
2023-03-19T12:12:28.321Z,16.5
2023-03-19T12:17:24.848Z,16.2
2023-03-19T12:23:36.147Z,15.8
2023-03-19T12:28:32.190Z,13.9
2023-03-19T12:33:28.537Z,14.2
2023-03-19T12:38:25.097Z,14.8
2023-03-19T12:44:35.796Z,14.5
2023-03-19T12:49:32.282Z,15.1
2023-03-19T12:54:28.920Z,14.9
2023-03-19T12:59:25.458Z,15.2
2023-03-19T13:01:53.882Z,15.1
2023-03-19T13:05:36.029Z,15.2
2023-03-19T13:10:32.803Z,15.8
2023-03-19T13:15:29.167Z,14.7
2023-03-19T13:20:25.709Z,15
2023-03-19T13:26:36.272Z,15.7
2023-03-19T13:31:32.894Z,15.3
2023-03-19T13:36:29.400Z,14.6
2023-03-19T13:41:25.871Z,15
2023-03-19T13:47:36.557Z,15.4
2023-03-19T13:52:33.116Z,15.6
2023-03-19T13:57:29.779Z,15.2
2023-03-19T14:02:26.209Z,15
2023-03-19T14:08:36.807Z,14.7
2023-03-19T14:13:33.337Z,14.3
2023-03-19T14:18:30.016Z,14
2023-03-19T14:23:38.515Z,13.5
2023-03-19T14:29:37.086Z,13.5
2023-03-19T14:34:33.608Z,13.3
2023-03-19T14:39:30.185Z,13.2
2023-03-19T14:44:26.704Z,13.6
2023-03-19T14:50:39.675Z,14.5
2023-03-19T14:55:34.164Z,15.7
2023-03-19T15:00:30.402Z,16.5
2023-03-19T15:05:26.947Z,17.1
2023-03-19T15:11:37.603Z,15
2023-03-19T15:16:34.239Z,14.1
2023-03-19T15:21:30.662Z,15
2023-03-19T15:26:27.214Z,13.7
2023-03-19T15:33:04.525Z,12.9
2023-03-19T15:37:34.411Z,14.5
2023-03-19T15:42:30.959Z,14.5
2023-03-19T15:47:27.499Z,13.5
2023-03-19T15:52:24.045Z,12.8
2023-03-19T15:58:34.682Z,15.2
2023-03-19T16:03:31.284Z,16.2
2023-03-19T16:08:27.741Z,15.3
2023-03-19T16:14:38.410Z,15.2
2023-03-19T16:19:34.971Z,15.3
2023-03-19T16:24:31.453Z,14.6
2023-03-19T16:29:28.038Z,14.2
2023-03-19T16:35:38.839Z,13.7
2023-03-19T16:40:35.397Z,13.5
2023-03-19T16:45:31.740Z,13.1
2023-03-19T16:50:28.263Z,13
2023-03-19T16:55:24.865Z,12.9
2023-03-19T17:01:35.502Z,12.9
2023-03-19T17:11:28.548Z,13.4
2023-03-19T17:16:25.179Z,12.4
2023-03-19T17:22:35.734Z,11.4
2023-03-19T17:27:34.583Z,11.1
2023-03-19T17:32:28.791Z,11.1
2023-03-19T17:37:25.457Z,11.3
2023-03-19T17:43:36.007Z,11.3
2023-03-19T17:48:32.577Z,11.1
2023-03-19T17:53:29.060Z,11
2023-03-19T17:58:25.685Z,10.9
2023-03-19T18:04:36.342Z,10.9
2023-03-19T18:09:32.903Z,11.1
2023-03-19T18:14:29.336Z,11.2
2023-03-19T18:19:25.914Z,11.2
2023-03-19T18:25:36.539Z,11.2
2023-03-19T18:30:33.366Z,11.3
2023-03-19T18:35:29.650Z,11.3
2023-03-19T18:40:26.147Z,11.4
2023-03-19T18:46:36.817Z,11.5
2023-03-19T18:51:33.331Z,11.4
2023-03-19T18:56:29.959Z,11.3
2023-03-19T19:01:26.407Z,11.2
2023-03-19T19:07:37.056Z,11.2
2023-03-19T19:12:33.586Z,11.3
2023-03-19T19:17:30.170Z,11.1
2023-03-19T19:22:26.678Z,11.1
2023-03-19T19:28:40.014Z,11.2
2023-03-19T19:33:33.872Z,11.3
2023-03-19T19:38:30.424Z,11.2
2023-03-19T19:43:26.932Z,11.1
2023-03-19T19:49:37.596Z,11.1
2023-03-19T19:54:34.130Z,11.1
2023-03-19T19:59:30.727Z,10.9
2023-03-19T20:04:29.979Z,10.9
2023-03-19T20:10:37.862Z,10.7
2023-03-19T20:15:34.763Z,10.6
2023-03-19T20:20:30.937Z,10.6
2023-03-19T20:25:27.480Z,10.6
2023-03-19T20:31:38.131Z,10.5
2023-03-19T20:36:34.708Z,10.5
2023-03-19T20:41:31.162Z,10.3
2023-03-19T20:46:27.839Z,10.4
2023-03-19T20:52:38.426Z,10.4
2023-03-19T20:57:34.908Z,10.4
2023-03-19T21:02:31.507Z,10.3
2023-03-19T21:07:28.015Z,10.4
2023-03-19T21:13:38.682Z,10.3
2023-03-19T21:18:35.186Z,10.1
2023-03-19T21:23:31.886Z,9.9
2023-03-19T21:28:28.271Z,10
2023-03-19T21:33:24.791Z,10
2023-03-19T21:39:35.460Z,10.1
2023-03-19T21:49:28.720Z,10
2023-03-19T21:54:33.341Z,9.9
2023-03-19T21:59:29.888Z,9.9
2023-03-19T22:10:37.003Z,9.9
2023-03-19T22:15:33.972Z,9.9
2023-03-19T22:20:30.135Z,9.8
2023-03-19T22:25:26.567Z,9.7
2023-03-19T22:31:37.348Z,9.7
2023-03-19T22:36:33.783Z,9.6
2023-03-19T22:41:30.356Z,9.6
2023-03-19T22:46:26.942Z,9.6
2023-03-19T22:52:37.501Z,9.5
2023-03-19T22:57:34.033Z,9.4
2023-03-19T23:02:30.547Z,9.4
2023-03-19T23:07:27.110Z,9.2
2023-03-19T23:13:38.058Z,9
2023-03-19T23:18:34.297Z,9
2023-03-19T23:23:30.815Z,8.9
2023-03-19T23:28:27.367Z,8.9
2023-03-19T23:34:53.981Z,8.9
2023-03-19T23:39:34.565Z,8.9
2023-03-19T23:44:31.070Z,8.8
2023-03-19T23:49:27.667Z,8.6
2023-03-19T23:55:38.316Z,8.5
